Time;durP1;ratioP1;P1;durP2;ratioP2;P2;SDS_P1;SDS_P2;PMS_P1;PMS_P2;Temp;Humidity;BMP_temperature;BMP_pressure;BME280_temperature;BME280_humidity;BME280_pressure;Samples;Min_cycle;Max_cycle;Signal;HPM_P1;HPM_P2
2022/06/01 00:01:30;;;;;;;16.63;6.43;;;13.30;99.90;;;13.38;81.42;100703.63;5024250;28;20468;-69
2022/06/01 00:04:00;;;;;;;5.73;5.23;;;13.40;99.90;;;13.34;81.39;100697.81;5026339;28;20942;-72
2022/06/01 00:06:30;;;;;;;7.00;6.30;;;13.30;99.90;;;13.27;81.96;100691.59;5030066;28;21031;-70
2022/06/01 00:08:59;;;;;;;7.00;5.83;;;13.20;99.90;;;13.22;82.26;100682.44;5025867;28;20768;-71
2022/06/01 00:11:28;;;;;;;7.10;5.67;;;13.20;99.90;;;13.22;81.86;100687.88;5025705;28;20824;-74
2022/06/01 00:13:58;;;;;;;6.83;6.20;;;13.20;99.90;;;13.34;81.25;100692.38;5030593;28;20444;-67
2022/06/01 00:16:28;;;;;;;7.10;6.40;;;13.30;99.90;;;13.41;80.86;100687.69;5018841;28;20657;-69
2022/06/01 00:18:57;;;;;;;5.90;5.37;;;13.30;99.90;;;13.45;81.82;100678.03;5025472;28;20865;-69
2022/06/01 00:21:27;;;;;;;7.83;5.87;;;13.40;99.90;;;13.36;81.05;100692.97;5026983;28;20529;-72
2022/06/01 00:23:56;;;;;;;7.13;6.13;;;13.30;99.90;;;13.42;80.86;100681.19;5029912;28;20726;-72
2022/06/01 00:26:25;;;;;;;7.77;6.90;;;13.30;99.90;;;13.40;81.40;100686.03;5025292;28;20483;-69
2022/06/01 00:28:54;;;;;;;8.77;6.93;;;13.30;99.90;;;13.41;81.21;100684.13;5016817;28;20444;-72
2022/06/01 00:31:25;;;;;;;7.13;6.40;;;13.30;99.90;;;13.34;81.71;100686.94;5023011;28;20492;-70
2022/06/01 00:33:54;;;;;;;11.77;7.20;;;13.30;99.90;;;13.40;81.51;100688.75;5020509;28;20440;-70
2022/06/01 00:36:23;;;;;;;7.80;6.90;;;13.30;99.90;;;13.46;80.87;100679.69;5026798;28;20444;-72
2022/06/01 00:38:52;;;;;;;6.73;6.10;;;13.30;99.90;;;13.50;81.07;100680.06;5022315;28;20430;-68
2022/06/01 00:41:21;;;;;;;7.03;6.33;;;13.40;99.90;;;13.59;80.87;100688.75;5021663;28;20539;-71
2022/06/01 00:43:50;;;;;;;7.53;6.20;;;13.50;99.90;;;13.68;81.00;100692.81;5026050;28;20440;-70
2022/06/01 00:46:19;;;;;;;7.90;6.20;;;13.60;99.90;;;13.55;81.86;100695.72;5028627;28;20543;-70
2022/06/01 00:48:55;;;;;;;6.97;5.30;;;13.50;99.90;;;13.51;82.40;100698.03;5024039;28;20881;-69
2022/06/01 00:51:28;;;;;;;7.03;6.43;;;13.40;99.90;;;13.47;82.54;100696.81;5023104;28;20442;-70
2022/06/01 00:53:59;;;;;;;7.47;6.70;;;13.40;99.90;;;13.61;82.16;100702.94;5023946;28;21043;-71
2022/06/01 00:56:34;;;;;;;6.83;6.17;;;13.50;99.90;;;13.61;82.02;100698.34;5023767;28;20436;-70
2022/06/01 00:59:09;;;;;;;9.30;6.37;;;13.50;99.90;;;13.60;82.19;100706.75;5027362;28;20901;-70
2022/06/01 01:01:40;;;;;;;7.57;5.80;;;13.50;99.90;;;13.41;82.83;100687.69;5026569;28;20734;-70
2022/06/01 01:04:11;;;;;;;7.60;6.80;;;13.40;99.90;;;13.42;83.63;100694.78;5028161;28;20438;-72
2022/06/01 01:06:43;;;;;;;7.87;7.07;;;13.40;99.90;;;13.41;83.77;100701.25;5025462;28;20468;-70
2022/06/01 01:09:14;;;;;;;7.50;6.73;;;13.30;99.90;;;13.37;84.58;100702.78;5019092;28;20411;-69
2022/06/01 01:11:50;;;;;;;7.63;6.40;;;13.30;99.90;;;13.43;84.53;100701.06;5022002;28;20510;-68
2022/06/01 01:14:26;;;;;;;8.27;7.00;;;13.30;99.90;;;13.26;85.05;100706.25;5024964;28;20440;-70
2022/06/01 01:16:56;;;;;;;7.87;6.60;;;13.20;99.90;;;13.28;85.35;100698.69;5027410;28;20444;-70
2022/06/01 01:19:35;;;;;;;8.60;7.50;;;13.20;99.90;;;13.31;84.35;100706.38;5023855;28;20448;-70
2022/06/01 01:22:25;;;;;;;7.13;6.40;;;13.20;99.90;;;13.19;84.27;100704.66;5029768;28;20526;-72
2022/06/01 01:25:19;;;;;;;7.17;6.53;;;13.10;99.90;;;13.39;83.44;100705.28;5023617;28;20914;-70
2022/06/01 01:27:56;;;;;;;8.30;6.97;;;13.10;99.90;;;13.37;83.30;100710.09;5023507;28;20432;-71
2022/06/01 01:30:49;;;;;;;7.43;6.73;;;13.20;99.90;;;13.21;83.01;100708.81;5028447;28;20918;-69
2022/06/01 01:33:24;;;;;;;6.77;5.90;;;13.10;99.90;;;13.17;82.72;100717.63;5028383;28;20437;-69
2022/06/01 01:35:57;;;;;;;7.77;7.00;;;13.10;99.90;;;13.23;82.35;100712.13;5024573;28;21015;-69
2022/06/01 01:38:41;;;;;;;5.10;4.70;;;13.10;99.90;;;13.14;82.21;100708.03;5027317;28;20514;-69
2022/06/01 01:41:22;;;;;;;9.00;6.80;;;13.10;99.90;;;13.16;82.80;100707.81;5026169;28;20488;-68
2022/06/01 01:44:00;;;;;;;6.83;6.13;;;13.00;99.90;;;13.12;82.36;100704.69;5023300;28;20413;-70
2022/06/01 01:46:31;;;;;;;6.77;5.70;;;13.00;99.90;;;13.05;82.92;100704.75;5028478;28;20474;-70
2022/06/01 01:49:02;;;;;;;7.90;5.93;;;13.00;99.90;;;13.06;83.00;100706.41;5029515;28;20534;-69
2022/06/01 01:51:34;;;;;;;6.23;5.63;;;13.00;99.90;;;13.03;83.00;100706.00;5025589;28;20430;-69
2022/06/01 01:54:17;;;;;;;5.47;4.97;;;12.90;1.00;;;12.95;83.18;100698.16;5028939;28;20418;-71
2022/06/01 01:57:21;;;;;;;11.93;6.10;;;12.80;1.00;;;12.89;83.35;100699.03;5029258;28;20965;-69
2022/06/01 02:00:09;;;;;;;5.97;5.37;;;12.80;1.00;;;12.81;84.21;100702.03;5011879;28;20451;-69
2022/06/01 02:02:50;;;;;;;5.60;4.70;;;12.80;1.00;;;12.87;84.79;100703.88;5028991;28;20665;-73
2022/06/01 02:08:26;;;;;;;8.00;7.20;;;12.80;99.90;;;12.92;84.38;100704.03;5027157;28;20494;-70
2022/06/01 02:14:25;;;;;;;9.50;6.30;;;12.90;99.90;;;12.92;84.43;100698.59;4967228;28;20466;-69
2022/06/01 02:17:02;;;;;;;6.60;5.90;;;12.80;99.90;;;12.93;83.69;100701.06;4967512;28;20441;-71
2022/06/01 02:19:38;;;;;;;7.00;6.00;;;12.90;99.90;;;13.05;82.69;100693.03;5002474;28;20456;-70
2022/06/01 02:22:08;;;;;;;7.70;5.87;;;12.90;99.90;;;12.98;82.73;100697.69;5026650;28;20455;-71
2022/06/01 02:24:39;;;;;;;9.17;5.60;;;12.90;99.90;;;12.98;82.85;100697.69;5026703;28;20423;-71
2022/06/01 02:27:11;;;;;;;12.50;6.23;;;12.90;99.90;;;12.98;82.79;100698.53;5026625;28;20502;-69
2022/06/01 02:29:53;;;;;;;6.50;5.73;;;12.90;99.90;;;13.12;82.04;100688.41;5027998;28;20463;-69
2022/06/01 02:32:25;;;;;;;7.13;5.90;;;13.00;1.00;;;13.04;82.65;100691.38;5026733;28;20868;-70
2022/06/01 02:34:57;;;;;;;5.77;5.10;;;13.00;1.00;;;13.05;82.39;100698.47;5027889;28;20447;-73
2022/06/01 02:37:29;;;;;;;5.80;4.73;;;13.00;93.00;;;13.04;82.30;100696.81;5031799;28;20439;-72
2022/06/01 02:40:02;;;;;;;9.00;6.13;;;13.00;1.00;;;13.27;81.46;100697.03;5026781;28;20464;-71
2022/06/01 02:42:31;;;;;;;5.67;4.87;;;13.10;1.00;;;13.20;81.45;100701.72;5027566;28;20472;-71
2022/06/01 02:45:04;;;;;;;6.30;5.70;;;13.10;99.90;;;13.03;82.17;100704.13;5030760;28;20472;-69
2022/06/01 02:47:40;;;;;;;6.73;5.70;;;13.00;1.00;;;13.04;82.59;100696.81;5036307;28;20531;-71
2022/06/01 02:50:16;;;;;;;6.93;6.23;;;12.90;99.90;;;12.88;83.29;100686.50;5028822;28;20445;-70
2022/06/01 02:52:46;;;;;;;6.10;5.23;;;12.80;1.00;;;12.86;83.18;100696.75;5033360;28;20460;-71
2022/06/01 02:55:17;;;;;;;6.80;5.50;;;12.80;1.00;;;12.80;83.03;100703.06;5034646;28;20603;-70
2022/06/01 02:57:46;;;;;;;5.70;5.20;;;12.70;1.00;;;12.86;83.37;100696.75;5029845;28;20880;-69
2022/06/01 03:00:20;;;;;;;6.60;5.90;;;12.80;1.00;;;12.96;82.87;100694.38;5023118;28;20476;-69
2022/06/01 03:02:52;;;;;;;5.50;5.00;;;12.80;1.00;;;12.92;82.93;100695.88;5025589;28;20529;-69
2022/06/01 03:05:26;;;;;;;8.60;5.00;;;12.80;99.90;;;12.81;82.89;100697.44;5031597;28;21126;-68
2022/06/01 03:07:56;;;;;;;6.50;5.30;;;12.80;1.00;;;12.94;82.56;100697.31;5027713;28;20453;-72
2022/06/01 03:10:27;;;;;;;6.57;5.50;;;12.80;1.00;;;12.88;82.00;100697.34;5022962;28;20990;-69
2022/06/01 03:12:57;;;;;;;6.60;5.57;;;12.80;99.90;;;12.84;82.57;100702.41;5023796;28;20447;-71
2022/06/01 03:15:28;;;;;;;5.17;4.67;;;12.80;77.40;;;12.82;82.78;100693.66;5027698;28;20513;-71
2022/06/01 03:17:57;;;;;;;6.77;5.70;;;12.80;1.00;;;13.01;81.33;100695.38;5030620;28;20410;-70
2022/06/01 03:20:28;;;;;;;6.97;5.80;;;12.90;99.90;;;12.94;81.62;100701.91;5027770;28;20874;-70
2022/06/01 03:22:59;;;;;;;6.63;5.13;;;12.90;99.90;;;12.85;82.33;100695.94;5030185;28;20436;-71
2022/06/01 03:25:29;;;;;;;7.13;4.97;;;12.80;99.90;;;12.88;82.70;100702.78;5035182;28;20775;-70
2022/06/01 03:28:01;;;;;;;6.30;5.13;;;12.80;1.00;;;12.88;82.98;100697.34;5027142;28;20472;-70
2022/06/01 03:30:31;;;;;;;6.03;5.50;;;12.70;99.90;;;12.80;83.04;100690.34;5029473;28;20499;-68
2022/06/01 03:33:01;;;;;;;5.30;4.80;;;12.70;99.90;;;12.74;82.51;100696.63;5027900;28;20411;-69
2022/06/01 03:35:34;;;;;;;5.93;5.37;;;12.60;99.90;;;12.80;82.50;100689.50;5030166;28;20467;-69
2022/06/01 03:38:02;;;;;;;6.47;5.70;;;12.60;99.90;;;13.07;81.40;100680.88;5025258;28;20444;-73
2022/06/01 03:40:33;;;;;;;6.97;5.53;;;12.80;99.90;;;13.19;79.55;100699.22;5034694;28;20452;-73
2022/06/01 03:43:03;;;;;;;7.63;4.70;;;13.00;4.10;;;13.19;78.94;100686.47;5029422;28;20487;-71
2022/06/01 03:48:20;;;;;;;5.50;5.00;;;13.10;1.00;;;13.14;79.63;100694.44;5030722;28;20487;-71
2022/06/01 03:50:49;;;;;;;3.93;3.63;;;13.10;99.90;;;13.26;78.78;100700.81;5027536;28;20841;-69
2022/06/01 03:53:20;;;;;;;5.07;4.27;;;13.20;99.90;;;13.47;77.12;100703.09;5023733;28;20821;-69
2022/06/01 03:55:49;;;;;;;4.63;4.23;;;13.30;99.90;;;13.64;75.91;100702.50;5025815;28;20921;-70
2022/06/01 03:58:21;;;;;;;5.00;4.33;;;13.40;99.90;;;13.66;75.76;100708.53;5026953;28;20448;-69
2022/06/01 04:00:52;;;;;;;4.77;4.20;;;13.40;99.90;;;13.88;74.22;100707.03;5028011;28;20460;-69
2022/06/01 04:03:21;;;;;;;4.60;4.20;;;13.50;99.90;;;13.88;74.31;100705.13;5028659;28;20470;-70
2022/06/01 04:05:51;;;;;;;5.63;4.70;;;13.60;99.90;;;13.93;74.21;100709.88;5028190;28;20522;-69
2022/06/01 04:08:20;;;;;;;5.13;4.63;;;13.60;99.90;;;13.96;73.56;100717.59;5024204;28;20471;-69
2022/06/01 04:10:49;;;;;;;4.40;4.00;;;13.70;99.90;;;13.95;73.36;100713.19;5017958;28;20460;-71
2022/06/01 04:13:19;;;;;;;5.00;4.17;;;13.70;99.90;;;14.11;72.45;100709.84;5044845;28;20431;-69
2022/06/01 04:15:47;;;;;;;4.43;4.03;;;13.70;99.90;;;14.26;71.99;100715.72;5024081;28;20510;-71
2022/06/01 04:18:18;;;;;;;4.60;3.90;;;13.80;99.90;;;14.22;71.81;100717.25;5027714;28;20436;-71
2022/06/01 04:20:49;;;;;;;5.87;4.70;;;13.80;99.80;;;14.26;71.62;100718.44;5030074;28;20457;-70
2022/06/01 04:23:18;;;;;;;4.57;4.03;;;13.80;97.30;;;14.29;71.75;100717.97;5024185;28;20889;-70
2022/06/01 04:25:47;;;;;;;5.40;3.73;;;13.70;99.90;;;14.21;71.43;100723.75;5025072;28;20411;-70
2022/06/01 04:28:16;;;;;;;4.20;3.80;;;13.70;95.70;;;13.96;71.52;100719.47;5028770;28;20463;-73
2022/06/01 04:30:46;;;;;;;4.60;4.17;;;13.60;90.30;;;13.76;72.51;100734.13;5027235;28;20483;-70
2022/06/01 04:33:17;;;;;;;4.43;4.03;;;13.50;91.10;;;13.77;72.36;100734.97;5023645;28;20404;-70
2022/06/01 04:35:45;;;;;;;4.23;3.83;;;13.50;90.20;;;13.55;72.99;100726.44;5038578;28;20483;-72
2022/06/01 04:38:15;;;;;;;4.93;4.40;;;13.30;95.20;;;13.58;73.71;100731.41;5023897;28;20421;-71
2022/06/01 04:40:49;;;;;;;4.63;4.20;;;13.30;99.90;;;13.65;73.43;100729.44;5028276;28;21026;-71
2022/06/01 04:43:21;;;;;;;3.97;3.63;;;13.30;99.90;;;14.40;71.38;100724.56;5026509;28;20783;-72
2022/06/01 04:45:56;;;;;;;4.00;3.60;;;13.60;99.90;;;16.73;64.30;100718.91;5027985;28;20448;-68
2022/06/01 04:48:27;;;;;;;4.70;4.37;;;14.40;69.20;;;18.44;57.65;100722.44;5029296;28;20464;-71
2022/06/01 04:50:59;;;;;;;3.70;3.40;;;15.40;25.80;;;19.32;55.21;100723.75;5024040;28;20430;-70
2022/06/01 04:53:28;;;;;;;4.20;3.77;;;16.30;15.60;;;20.10;53.41;100728.31;5025834;28;20402;-69
2022/06/01 04:55:57;;;;;;;4.73;3.93;;;17.00;8.00;;;20.63;51.21;100735.38;5023040;28;20442;-70
2022/06/01 04:58:26;;;;;;;5.00;3.57;;;17.60;2.00;;;21.30;50.12;100726.06;5026388;28;21049;-69
2022/06/01 05:00:55;;;;;;;4.07;3.67;;;18.30;1.00;;;21.92;47.60;100739.44;5027766;28;20463;-71
2022/06/01 05:03:26;;;;;;;4.17;3.87;;;18.80;1.00;;;22.28;46.67;100733.78;5029152;28;20822;-73
2022/06/01 05:05:55;;;;;;;5.37;4.63;;;18.60;1.00;;;21.99;47.11;100733.63;5023547;28;20794;-69
2022/06/01 05:08:24;;;;;;;4.00;3.70;;;18.80;1.00;;;22.65;46.02;100730.53;5030197;28;20445;-70
2022/06/01 05:10:53;;;;;;;4.30;3.90;;;19.20;1.00;;;22.43;46.11;100739.22;5035365;28;20469;-71
2022/06/01 05:13:22;;;;;;;4.27;3.87;;;19.60;1.00;;;21.46;47.05;100735.97;5024053;28;20462;-70
2022/06/01 05:15:54;;;;;;;6.20;4.33;;;19.00;1.00;;;19.40;52.66;100737.00;5026900;28;20455;-72
2022/06/01 05:18:26;;;;;;;3.77;3.47;;;18.70;1.00;;;18.54;54.82;100742.56;5022229;28;20454;-71
2022/06/01 05:20:56;;;;;;;4.80;4.40;;;17.80;1.00;;;17.62;56.24;100741.69;5026435;28;20460;-70
2022/06/01 05:23:26;;;;;;;3.63;3.30;;;17.10;1.00;;;17.39;57.96;100737.19;5032215;28;20459;-69
2022/06/01 05:25:56;;;;;;;4.10;3.80;;;16.70;1.00;;;17.58;56.70;100733.09;5027521;28;20883;-72
2022/06/01 05:28:30;;;;;;;4.70;3.50;;;16.50;1.00;;;17.67;56.17;100737.09;5028732;28;20434;-69
2022/06/01 05:30:59;;;;;;;5.57;4.33;;;16.40;1.00;;;17.72;55.19;100731.69;5026340;28;20979;-70
2022/06/01 05:33:30;;;;;;;5.60;3.77;;;16.40;1.00;;;17.01;56.99;100737.13;5032717;28;20437;-70
2022/06/01 05:35:59;;;;;;;3.73;3.23;;;16.40;1.00;;;16.55;58.96;100739.06;5030353;28;20517;-69
2022/06/01 05:38:29;;;;;;;3.87;3.47;;;16.10;1.00;;;16.39;59.88;100742.56;5030440;28;20542;-73
2022/06/01 05:40:58;;;;;;;6.83;3.80;;;15.90;1.00;;;16.41;60.00;100743.16;5026278;28;20450;-70
2022/06/01 05:43:27;;;;;;;6.07;3.80;;;15.80;1.00;;;16.60;60.54;100741.91;5026698;28;20770;-69
2022/06/01 05:45:56;;;;;;;5.70;3.87;;;15.80;1.00;;;17.07;58.52;100745.19;5032221;28;20896;-69
2022/06/01 05:48:25;;;;;;;3.70;3.37;;;16.20;1.00;;;17.14;58.59;100747.72;5023582;28;20978;-70
2022/06/01 05:51:00;;;;;;;4.13;3.80;;;16.40;1.00;;;16.53;56.91;100743.91;5028033;28;20586;-71
2022/06/01 05:53:29;;;;;;;6.40;3.47;;;16.20;1.00;;;16.53;58.09;100743.91;5030180;28;20451;-69
2022/06/01 05:55:58;;;;;;;3.90;3.50;;;15.90;1.00;;;16.26;58.56;100740.97;5038639;28;20510;-68
2022/06/01 05:58:32;;;;;;;3.70;3.40;;;15.80;1.00;;;16.08;59.25;100741.94;5021789;28;20789;-69
2022/06/01 06:01:05;;;;;;;3.70;3.40;;;15.50;1.00;;;16.33;58.87;100736.16;5027714;28;20932;-69
2022/06/01 06:03:35;;;;;;;4.03;3.67;;;15.60;1.00;;;16.40;59.41;100731.41;5036466;28;20436;-71
2022/06/01 06:06:13;;;;;;;5.03;3.67;;;15.80;1.00;;;16.60;58.04;100736.44;5048517;28;20455;-70
2022/06/01 06:08:47;;;;;;;3.90;3.60;;;15.90;1.00;;;16.67;59.13;100730.81;5038941;28;20443;-72
2022/06/01 06:11:26;;;;;;;4.07;3.67;;;16.00;1.00;;;17.02;57.43;100727.84;5032881;28;20593;-70
2022/06/01 06:13:58;;;;;;;4.47;4.07;;;16.30;1.00;;;17.23;57.32;100735.31;5032630;28;20950;-71
2022/06/01 06:16:29;;;;;;;3.70;3.40;;;16.50;1.00;;;17.49;56.87;100736.50;5032535;28;20439;-71
2022/06/01 06:18:58;;;;;;;4.03;3.60;;;16.70;1.00;;;17.73;56.72;100736.06;5035096;28;20447;-70
2022/06/01 06:21:31;;;;;;;5.37;4.37;;;17.00;1.00;;;17.67;55.82;100739.81;5034012;28;20459;-71
2022/06/01 06:24:06;;;;;;;4.00;3.70;;;17.10;1.00;;;17.50;56.06;100746.38;5035932;28;20905;-71
2022/06/01 06:26:36;;;;;;;4.00;3.60;;;17.00;1.00;;;17.53;56.60;100746.69;5034397;28;20953;-70
2022/06/01 06:29:09;;;;;;;4.53;4.10;;;17.00;1.00;;;17.74;55.99;100743.22;5033802;28;20480;-71
2022/06/01 06:31:39;;;;;;;4.03;3.63;;;17.20;1.00;;;17.92;55.24;100733.84;5025542;28;20466;-71
2022/06/01 06:34:15;;;;;;;5.07;3.30;;;17.20;1.00;;;18.01;55.25;100737.81;5034419;28;20429;-70
2022/06/01 06:36:46;;;;;;;5.50;5.00;;;17.30;1.00;;;18.26;55.17;100740.03;5025838;28;20410;-72
2022/06/01 06:39:15;;;;;;;3.93;3.63;;;17.60;1.00;;;18.24;53.85;100734.81;5031449;28;20451;-72
2022/06/01 06:41:45;;;;;;;4.50;3.83;;;17.40;1.00;;;18.02;54.33;100733.16;5026403;28;20482;-69
2022/06/01 06:44:14;;;;;;;4.60;3.70;;;17.40;1.00;;;18.12;54.55;100730.53;5028372;28;20847;-68
2022/06/01 06:46:43;;;;;;;3.37;3.10;;;17.30;1.00;;;18.25;54.66;100730.13;5030837;28;20411;-72
2022/06/01 06:49:12;;;;;;;3.80;3.33;;;17.50;1.00;;;18.06;54.66;100740.59;5026278;28;20492;-70
2022/06/01 06:51:41;;;;;;;3.60;3.30;;;17.60;1.00;;;17.89;54.41;100733.53;5029938;28;21132;-70
2022/06/01 06:54:11;;;;;;;4.43;4.00;;;17.50;1.00;;;18.06;54.12;100746.06;5026627;28;20418;-73
2022/06/01 06:56:40;;;;;;;2.67;2.47;;;17.60;1.00;;;18.01;53.23;100746.00;5026675;28;20414;-73
2022/06/01 06:59:12;;;;;;;3.67;2.93;;;17.70;1.00;;;17.85;54.61;100743.34;5029276;28;20432;-73
2022/06/01 07:01:40;;;;;;;3.63;2.90;;;17.60;1.00;;;18.03;53.65;100734.81;5024708;28;20941;-71
2022/06/01 07:04:10;;;;;;;3.80;3.50;;;17.70;1.00;;;17.89;53.94;100734.38;5024380;28;20424;-70
2022/06/01 07:06:39;;;;;;;3.80;3.50;;;17.50;1.00;;;17.96;53.55;100734.19;5026455;28;20452;-71
2022/06/01 07:09:07;;;;;;;3.90;3.43;;;17.60;1.00;;;17.97;53.44;100735.81;5031233;28;20527;-71
2022/06/01 07:11:38;;;;;;;3.37;3.10;;;17.70;1.00;;;18.29;53.18;100730.47;5031347;28;20791;-71
2022/06/01 07:14:08;;;;;;;3.63;3.23;;;17.80;1.00;;;18.41;53.51;100731.97;5027567;28;21099;-72
2022/06/01 07:16:38;;;;;;;4.60;3.00;;;18.00;1.00;;;18.64;51.84;100731.69;5029173;28;20457;-72
2022/06/01 07:19:09;;;;;;;4.10;3.77;;;18.00;1.00;;;19.18;50.60;100731.63;5025537;28;20438;-73
2022/06/01 07:21:38;;;;;;;4.17;3.23;;;18.50;1.00;;;18.91;51.35;100748.13;5029245;28;20445;-70
2022/06/01 07:24:08;;;;;;;4.00;3.43;;;18.70;1.00;;;19.48;50.27;100742.00;5023596;28;22301;-73
2022/06/01 07:26:43;;;;;;;4.30;3.90;;;18.80;1.00;;;19.48;49.91;100747.50;5025545;28;20924;-73
2022/06/01 07:29:15;;;;;;;3.67;3.37;;;19.00;1.00;;;19.63;49.36;100744.03;5022024;28;20586;-71
2022/06/01 07:31:44;;;;;;;3.93;3.53;;;19.10;1.00;;;20.32;48.18;100758.41;5030717;28;20752;-72
2022/06/01 07:34:14;;;;;;;3.80;2.80;;;19.60;1.00;;;19.98;48.80;100752.47;5027731;28;20436;-72
2022/06/01 07:36:45;;;;;;;3.37;3.07;;;19.20;1.00;;;20.32;48.55;100747.41;5028057;28;20445;-69
2022/06/01 07:44:54;;;;;;;3.37;3.07;;;20.10;1.00;;;21.16;46.74;100752.50;5021781;28;20470;-71
2022/06/01 07:47:23;;;;;;;3.93;2.80;;;20.20;1.00;;;21.12;46.73;100757.69;5029512;28;20411;-71
2022/06/01 07:50:12;;;;;;;5.30;2.60;;;20.40;1.00;;;20.95;45.84;100745.31;5032696;28;20446;-72
2022/06/01 07:53:03;;;;;;;2.93;2.60;;;20.40;1.00;;;21.02;46.87;100749.44;5026385;28;20439;-70
2022/06/01 07:55:32;;;;;;;2.77;2.47;;;20.30;1.00;;;20.64;46.79;100749.94;5023651;28;20419;-71
2022/06/01 07:58:03;;;;;;;2.53;2.33;;;20.30;1.00;;;20.33;47.62;100754.56;5032106;28;20436;-71
2022/06/01 08:00:33;;;;;;;3.43;3.13;;;19.80;1.00;;;20.37;47.28;100756.50;5025328;28;20432;-69
2022/06/01 08:03:02;;;;;;;9.20;2.80;;;19.60;1.00;;;20.61;47.68;100754.09;5025190;28;20403;-71
2022/06/01 08:05:31;;;;;;;3.50;3.00;;;19.70;1.00;;;20.46;48.15;100759.53;5031325;28;20937;-70
2022/06/01 08:08:00;;;;;;;2.43;2.23;;;19.60;1.00;;;20.46;48.04;100755.97;5023698;28;20419;-71
2022/06/01 08:10:29;;;;;;;3.47;2.80;;;19.80;1.00;;;20.48;48.12;100748.28;5030647;28;20831;-71
2022/06/01 08:13:10;;;;;;;4.17;3.50;;;19.80;1.00;;;19.57;49.52;100751.41;5028350;28;20514;-72
2022/06/01 08:15:45;;;;;;;2.97;2.27;;;19.20;1.00;;;19.51;50.03;100747.78;5031141;28;20855;-71
2022/06/01 08:18:17;;;;;;;4.00;3.70;;;19.20;1.00;;;19.42;50.35;100754.84;5025580;28;20466;-73
2022/06/01 08:20:50;;;;;;;4.03;3.13;;;19.10;1.00;;;19.44;50.81;100760.94;5024277;28;20475;-70
2022/06/01 08:23:23;;;;;;;4.20;3.80;;;19.10;1.00;;;19.23;50.65;100744.53;5027323;28;20440;-72
2022/06/01 08:25:52;;;;;;;4.87;3.83;;;19.00;1.00;;;18.70;52.19;100750.94;5023549;28;20414;-73
2022/06/01 08:28:22;;;;;;;4.77;4.23;;;18.60;1.00;;;19.08;51.67;100767.19;5030123;28;20407;-69
2022/06/01 08:30:54;;;;;;;5.63;4.00;;;18.70;1.00;;;19.29;50.50;100754.47;5030464;28;20534;-70
2022/06/01 08:33:23;;;;;;;3.53;3.20;;;18.90;1.00;;;19.26;51.39;100761.31;5023833;28;20531;-70
2022/06/01 08:35:52;;;;;;;5.23;3.97;;;18.90;1.00;;;19.22;50.68;100768.41;5029841;28;20455;-73
2022/06/01 08:38:21;;;;;;;4.37;3.87;;;18.90;1.00;;;18.65;52.34;100763.50;5029095;28;20441;-71
2022/06/01 08:40:56;;;;;;;3.97;3.33;;;18.60;1.00;;;18.72;52.64;100757.81;5030003;28;20476;-71
2022/06/01 08:43:31;;;;;;;3.93;3.57;;;18.50;1.00;;;18.64;52.66;100763.75;5024569;28;20478;-71
2022/06/01 08:46:04;;;;;;;5.37;3.53;;;18.40;1.00;;;19.04;51.90;100766.06;5028232;28;20518;-70
2022/06/01 08:48:44;;;;;;;4.20;3.33;;;18.50;1.00;;;18.80;51.67;100773.78;5029226;28;20426;-72
2022/06/01 08:51:14;;;;;;;4.57;3.30;;;18.40;1.00;;;18.71;50.71;100771.78;5028869;28;20454;-73
2022/06/01 08:53:44;;;;;;;3.83;3.07;;;18.40;1.00;;;18.66;51.56;100773.38;5029233;28;20849;-72
2022/06/01 08:56:18;;;;;;;4.97;2.97;;;18.40;1.00;;;19.36;50.53;100775.13;5029785;28;20514;-71
2022/06/01 08:58:59;;;;;;;6.40;2.57;;;18.70;1.00;;;19.34;49.11;100774.53;5028044;28;20431;-70
2022/06/01 09:01:38;;;;;;;3.77;2.90;;;18.90;1.00;;;18.98;49.08;100789.03;5019580;28;20477;-71
2022/06/01 09:04:28;;;;;;;3.43;2.60;;;18.80;1.00;;;18.58;48.97;100779.34;5029996;28;20419;-72
2022/06/01 09:07:11;;;;;;;4.57;3.70;;;18.50;1.00;;;18.47;48.91;100782.19;5030237;28;20422;-71
2022/06/01 09:10:02;;;;;;;3.57;2.40;;;18.30;1.00;;;19.24;48.25;100784.59;5031413;28;20954;-70
2022/06/01 09:12:34;;;;;;;2.50;2.30;;;18.60;1.00;;;19.39;47.70;100785.56;5031454;28;20546;-72
2022/06/01 09:15:17;;;;;;;2.77;2.33;;;18.70;1.00;;;20.17;47.53;100780.28;5029111;28;20480;-73
2022/06/01 09:17:48;;;;;;;3.33;2.40;;;19.30;1.00;;;20.65;45.33;100790.09;5030047;28;20442;-70
2022/06/01 09:23:13;;;;;;;4.13;2.87;;;19.70;1.00;;;20.55;45.08;100790.06;5027069;28;20451;-74
2022/06/01 09:25:52;;;;;;;3.47;2.50;;;19.80;1.00;;;20.05;44.88;100793.41;5025903;28;20997;-71
2022/06/01 09:28:24;;;;;;;2.53;2.10;;;19.80;1.00;;;20.34;45.68;100790.00;5025447;28;20455;-71
2022/06/01 09:30:59;;;;;;;3.83;2.70;;;19.80;1.00;;;20.81;43.82;100778.06;5029502;28;20881;-70
2022/06/01 09:33:33;;;;;;;3.47;1.97;;;20.20;1.00;;;20.41;43.72;100786.19;5024929;28;20463;-70
2022/06/01 09:36:27;;;;;;;2.50;2.30;;;20.20;1.00;;;19.94;43.43;100778.81;5030386;28;20458;-71
2022/06/01 09:39:00;;;;;;;3.77;2.37;;;19.90;1.00;;;19.57;44.21;100764.28;5034086;28;20842;-73
2022/06/01 09:41:36;;;;;;;3.50;3.20;;;19.60;1.00;;;19.20;44.17;100767.84;5029706;28;20839;-71
2022/06/01 09:44:10;;;;;;;3.53;2.57;;;19.20;1.00;;;19.40;44.65;100765.28;5027514;28;20485;-72
2022/06/01 09:46:53;;;;;;;5.00;2.90;;;19.20;1.00;;;19.09;45.33;100757.88;5033722;28;20895;-70
2022/06/01 09:49:29;;;;;;;3.37;2.10;;;19.00;1.00;;;19.29;44.49;100759.97;5031150;28;20463;-73
2022/06/01 09:52:08;;;;;;;3.40;2.70;;;19.10;1.00;;;19.55;44.10;100759.09;5034122;28;20524;-70
2022/06/01 09:54:43;;;;;;;6.87;3.67;;;19.20;1.00;;;20.14;43.49;100750.63;5034082;28;20721;-70
2022/06/01 09:57:25;;;;;;;3.30;2.47;;;19.60;1.00;;;20.32;41.69;100748.25;5031296;28;20410;-72
2022/06/01 10:08:29;;;;;;;3.00;2.30;;;19.50;1.00;;;20.83;42.08;100737.31;5026793;28;20932;-70
2022/06/01 10:11:03;;;;;;;4.40;2.07;;;20.10;1.00;;;21.12;40.68;100735.69;5030426;28;20454;-72
2022/06/01 10:13:35;;;;;;;4.93;3.60;;;20.60;1.00;;;21.52;39.42;100725.78;5025912;28;20418;-71
2022/06/01 10:16:22;;;;;;;4.07;2.50;;;21.00;1.00;;;22.24;38.07;100729.94;5032860;28;20415;-74
2022/06/01 10:18:56;;;;;;;2.83;2.50;;;21.60;1.00;;;22.13;38.55;100731.91;5022774;28;20458;-70
2022/06/01 10:21:36;;;;;;;5.17;2.47;;;21.90;1.00;;;21.87;38.95;100719.34;5031064;28;20626;-70
2022/06/01 10:24:17;;;;;;;3.50;2.30;;;21.50;1.00;;;22.56;37.88;100716.50;5031453;28;20459;-70
2022/06/01 10:26:55;;;;;;;2.67;1.97;;;21.90;1.00;;;22.72;36.24;100714.50;5032473;28;20439;-69
2022/06/01 10:29:32;;;;;;;2.20;1.33;;;22.30;1.00;;;22.46;35.98;100717.41;5028087;28;20482;-72
2022/06/01 10:32:09;;;;;;;3.27;1.67;;;22.10;1.00;;;22.39;36.29;100724.34;5025630;28;20483;-70
2022/06/01 10:34:48;;;;;;;2.23;1.57;;;22.10;1.00;;;22.47;36.08;100707.19;5026438;28;20767;-70
2022/06/01 10:37:30;;;;;;;2.00;1.50;;;22.20;1.00;;;22.89;36.24;100715.78;5031426;28;20925;-71
2022/06/01 10:40:07;;;;;;;4.13;2.10;;;22.40;1.00;;;23.01;34.79;100701.59;5033193;28;20439;-70
2022/06/01 10:45:40;;;;;;;2.20;2.00;;;22.90;1.00;;;23.26;34.82;100695.00;5027378;28;20444;-72
2022/06/01 10:48:15;;;;;;;5.23;1.93;;;23.00;1.00;;;23.61;35.45;100689.16;5031418;28;20535;-71
2022/06/01 10:50:54;;;;;;;2.53;2.33;;;23.10;1.00;;;22.99;36.02;100691.97;5030310;28;20937;-70
2022/06/01 10:53:40;;;;;;;2.60;2.00;;;22.90;1.00;;;22.93;35.14;100688.41;5036304;28;20906;-71
2022/06/01 10:56:09;;;;;;;3.40;2.37;;;22.70;1.00;;;23.03;35.14;100682.00;5030414;28;20972;-70
2022/06/01 10:58:38;;;;;;;3.13;2.20;;;22.50;1.00;;;22.92;34.56;100686.78;5029149;28;20510;-70
2022/06/01 11:01:16;;;;;;;3.30;2.50;;;22.60;1.00;;;22.66;34.89;100691.63;5031085;28;20441;-71
2022/06/01 11:04:44;;;;;;;6.10;2.50;;;22.40;1.00;;;22.56;35.74;100683.41;5031460;28;20448;-72
2022/06/01 11:07:50;;;;;;;3.07;2.63;;;22.20;1.00;;;22.26;36.14;100687.22;5026295;28;20430;-73
2022/06/01 11:10:32;;;;;;;3.37;2.50;;;21.90;1.00;;;22.51;36.04;100680.72;5027800;28;20423;-70
2022/06/01 11:13:18;;;;;;;3.77;2.80;;;22.00;1.00;;;22.43;36.67;100673.03;5027102;28;20410;-69